sensor_id;sensor_type;location;lat;lon;timestamp;temperature;humidity
20335;DHT22;10325;51.468;5.804;2023-03-01T00:01:26;15.50;55.00
20335;DHT22;10325;51.468;5.804;2023-03-01T00:04:01;15.50;55.10
20335;DHT22;10325;51.468;5.804;2023-03-01T00:06:44;15.50;55.10
20335;DHT22;10325;51.468;5.804;2023-03-01T00:09:16;15.50;55.10
20335;DHT22;10325;51.468;5.804;2023-03-01T00:11:49;15.40;55.20
20335;DHT22;10325;51.468;5.804;2023-03-01T00:14:19;15.40;55.20
20335;DHT22;10325;51.468;5.804;2023-03-01T00:16:49;15.50;55.20
20335;DHT22;10325;51.468;5.804;2023-03-01T00:19:20;15.40;55.20
20335;DHT22;10325;51.468;5.804;2023-03-01T00:21:57;15.40;55.20
20335;DHT22;10325;51.468;5.804;2023-03-01T00:24:26;15.40;55.30
20335;DHT22;10325;51.468;5.804;2023-03-01T00:26:59;15.40;55.40
20335;DHT22;10325;51.468;5.804;2023-03-01T00:29:30;15.40;55.40
20335;DHT22;10325;51.468;5.804;2023-03-01T00:32:00;15.40;55.40
20335;DHT22;10325;51.468;5.804;2023-03-01T00:34:38;15.40;55.50
20335;DHT22;10325;51.468;5.804;2023-03-01T00:37:07;15.30;55.40
20335;DHT22;10325;51.468;5.804;2023-03-01T00:39:39;15.30;55.50
20335;DHT22;10325;51.468;5.804;2023-03-01T00:42:11;15.30;55.50
20335;DHT22;10325;51.468;5.804;2023-03-01T00:44:40;15.30;55.60
20335;DHT22;10325;51.468;5.804;2023-03-01T00:47:10;15.30;55.60
20335;DHT22;10325;51.468;5.804;2023-03-01T00:49:40;15.30;55.60
20335;DHT22;10325;51.468;5.804;2023-03-01T00:52:10;15.30;55.70
20335;DHT22;10325;51.468;5.804;2023-03-01T00:54:41;15.30;55.70
20335;DHT22;10325;51.468;5.804;2023-03-01T00:57:12;15.30;55.70
20335;DHT22;10325;51.468;5.804;2023-03-01T00:59:42;15.30;55.70
20335;DHT22;10325;51.468;5.804;2023-03-01T01:02:13;15.30;55.70
20335;DHT22;10325;51.468;5.804;2023-03-01T01:04:49;15.20;55.70
20335;DHT22;10325;51.468;5.804;2023-03-01T01:07:19;15.20;55.70
20335;DHT22;10325;51.468;5.804;2023-03-01T01:09:55;15.20;55.80
20335;DHT22;10325;51.468;5.804;2023-03-01T01:12:25;15.20;55.80
20335;DHT22;10325;51.468;5.804;2023-03-01T01:14:58;15.20;55.80
20335;DHT22;10325;51.468;5.804;2023-03-01T01:17:27;15.20;55.80
20335;DHT22;10325;51.468;5.804;2023-03-01T01:19:55;15.20;55.90
20335;DHT22;10325;51.468;5.804;2023-03-01T01:22:26;15.20;56.00
20335;DHT22;10325;51.468;5.804;2023-03-01T01:24:54;15.20;55.90
20335;DHT22;10325;51.468;5.804;2023-03-01T01:27:27;15.20;56.00
20335;DHT22;10325;51.468;5.804;2023-03-01T01:30:00;15.10;55.90
20335;DHT22;10325;51.468;5.804;2023-03-01T01:32:33;15.10;55.90
20335;DHT22;10325;51.468;5.804;2023-03-01T01:35:00;15.10;56.00
20335;DHT22;10325;51.468;5.804;2023-03-01T01:37:29;15.10;56.00
20335;DHT22;10325;51.468;5.804;2023-03-01T01:40:05;15.10;56.00
20335;DHT22;10325;51.468;5.804;2023-03-01T01:42:36;15.10;56.00
20335;DHT22;10325;51.468;5.804;2023-03-01T01:45:27;15.10;56.10
20335;DHT22;10325;51.468;5.804;2023-03-01T01:48:03;15.10;56.00
20335;DHT22;10325;51.468;5.804;2023-03-01T01:50:37;15.10;56.20
20335;DHT22;10325;51.468;5.804;2023-03-01T01:53:28;15.10;56.20
20335;DHT22;10325;51.468;5.804;2023-03-01T01:56:03;15.10;56.10
20335;DHT22;10325;51.468;5.804;2023-03-01T01:58:42;15.00;56.10
20335;DHT22;10325;51.468;5.804;2023-03-01T02:01:27;15.00;56.20
20335;DHT22;10325;51.468;5.804;2023-03-01T02:03:59;15.00;56.20
20335;DHT22;10325;51.468;5.804;2023-03-01T02:06:48;15.00;56.20
20335;DHT22;10325;51.468;5.804;2023-03-01T02:09:21;15.00;56.20
20335;DHT22;10325;51.468;5.804;2023-03-01T02:11:53;15.00;56.90
20335;DHT22;10325;51.468;5.804;2023-03-01T02:14:20;15.00;56.40
20335;DHT22;10325;51.468;5.804;2023-03-01T02:16:53;15.00;56.30
20335;DHT22;10325;51.468;5.804;2023-03-01T02:22:38;15.00;56.30
20335;DHT22;10325;51.468;5.804;2023-03-01T02:25:35;15.00;56.80
20335;DHT22;10325;51.468;5.804;2023-03-01T02:30:50;14.90;56.40
20335;DHT22;10325;51.468;5.804;2023-03-01T02:33:42;14.90;56.40
20335;DHT22;10325;51.468;5.804;2023-03-01T02:36:26;14.90;56.40
20335;DHT22;10325;51.468;5.804;2023-03-01T02:39:03;14.90;56.50
20335;DHT22;10325;51.468;5.804;2023-03-01T02:41:34;14.90;56.50
20335;DHT22;10325;51.468;5.804;2023-03-01T02:44:07;14.90;56.50
20335;DHT22;10325;51.468;5.804;2023-03-01T02:46:48;14.90;56.50
20335;DHT22;10325;51.468;5.804;2023-03-01T02:49:23;14.90;56.60
20335;DHT22;10325;51.468;5.804;2023-03-01T02:55:24;14.90;56.60
20335;DHT22;10325;51.468;5.804;2023-03-01T02:57:55;14.90;56.70
20335;DHT22;10325;51.468;5.804;2023-03-01T03:00:31;14.90;56.70
20335;DHT22;10325;51.468;5.804;2023-03-01T03:03:04;14.90;56.70
20335;DHT22;10325;51.468;5.804;2023-03-01T03:05:34;14.90;56.70
20335;DHT22;10325;51.468;5.804;2023-03-01T03:08:09;14.90;56.70
20335;DHT22;10325;51.468;5.804;2023-03-01T03:10:41;14.80;56.70
20335;DHT22;10325;51.468;5.804;2023-03-01T03:13:19;14.90;56.80
20335;DHT22;10325;51.468;5.804;2023-03-01T03:15:49;14.90;56.80
20335;DHT22;10325;51.468;5.804;2023-03-01T03:18:19;14.90;56.70
20335;DHT22;10325;51.468;5.804;2023-03-01T03:20:52;14.90;56.80
20335;DHT22;10325;51.468;5.804;2023-03-01T03:23:24;14.80;56.70
20335;DHT22;10325;51.468;5.804;2023-03-01T03:26:00;14.90;56.80
20335;DHT22;10325;51.468;5.804;2023-03-01T03:28:39;14.80;56.80
20335;DHT22;10325;51.468;5.804;2023-03-01T03:31:10;14.80;56.80
20335;DHT22;10325;51.468;5.804;2023-03-01T03:33:39;14.80;56.80
20335;DHT22;10325;51.468;5.804;2023-03-01T03:36:25;14.80;56.80
20335;DHT22;10325;51.468;5.804;2023-03-01T03:38:55;14.80;56.90
20335;DHT22;10325;51.468;5.804;2023-03-01T03:41:25;14.80;56.80
20335;DHT22;10325;51.468;5.804;2023-03-01T03:43:58;14.80;56.90
20335;DHT22;10325;51.468;5.804;2023-03-01T03:46:27;14.80;56.80
20335;DHT22;10325;51.468;5.804;2023-03-01T03:49:01;14.80;56.80
20335;DHT22;10325;51.468;5.804;2023-03-01T03:51:34;14.80;56.80
20335;DHT22;10325;51.468;5.804;2023-03-01T03:54:02;14.80;56.80
20335;DHT22;10325;51.468;5.804;2023-03-01T03:56:30;14.80;56.90
20335;DHT22;10325;51.468;5.804;2023-03-01T03:59:02;14.70;56.80
20335;DHT22;10325;51.468;5.804;2023-03-01T04:01:31;14.70;56.90
20335;DHT22;10325;51.468;5.804;2023-03-01T04:04:02;14.70;56.90
20335;DHT22;10325;51.468;5.804;2023-03-01T04:06:42;14.70;56.80
20335;DHT22;10325;51.468;5.804;2023-03-01T04:09:13;14.70;56.90
20335;DHT22;10325;51.468;5.804;2023-03-01T04:11:42;14.70;56.90
20335;DHT22;10325;51.468;5.804;2023-03-01T04:14:12;14.70;56.90
20335;DHT22;10325;51.468;5.804;2023-03-01T04:16:54;14.70;57.00
20335;DHT22;10325;51.468;5.804;2023-03-01T04:19:22;14.70;57.00
20335;DHT22;10325;51.468;5.804;2023-03-01T04:21:53;14.70;57.00
20335;DHT22;10325;51.468;5.804;2023-03-01T04:24:30;14.70;56.90
20335;DHT22;10325;51.468;5.804;2023-03-01T04:27:03;14.70;56.90
20335;DHT22;10325;51.468;5.804;2023-03-01T04:29:32;14.70;56.90
20335;DHT22;10325;51.468;5.804;2023-03-01T04:32:02;14.70;56.80
20335;DHT22;10325;51.468;5.804;2023-03-01T04:34:35;14.70;56.80
20335;DHT22;10325;51.468;5.804;2023-03-01T04:37:02;14.70;56.80
20335;DHT22;10325;51.468;5.804;2023-03-01T04:39:31;14.70;56.80
20335;DHT22;10325;51.468;5.804;2023-03-01T04:42:03;14.70;56.80
20335;DHT22;10325;51.468;5.804;2023-03-01T04:44:33;14.60;56.80
20335;DHT22;10325;51.468;5.804;2023-03-01T04:47:05;14.60;56.70
20335;DHT22;10325;51.468;5.804;2023-03-01T04:49:33;14.60;56.80
20335;DHT22;10325;51.468;5.804;2023-03-01T04:52:17;14.60;56.70
20335;DHT22;10325;51.468;5.804;2023-03-01T04:54:50;14.60;56.80
20335;DHT22;10325;51.468;5.804;2023-03-01T04:57:24;14.60;56.70
20335;DHT22;10325;51.468;5.804;2023-03-01T04:59:53;14.60;56.70
20335;DHT22;10325;51.468;5.804;2023-03-01T05:02:24;14.60;56.70
20335;DHT22;10325;51.468;5.804;2023-03-01T05:04:53;14.60;56.80
20335;DHT22;10325;51.468;5.804;2023-03-01T05:07:26;14.60;56.70
20335;DHT22;10325;51.468;5.804;2023-03-01T05:09:56;14.60;56.70
20335;DHT22;10325;51.468;5.804;2023-03-01T05:12:26;14.60;56.70
20335;DHT22;10325;51.468;5.804;2023-03-01T05:14:56;14.50;56.70
20335;DHT22;10325;51.468;5.804;2023-03-01T05:17:39;14.60;56.70
20335;DHT22;10325;51.468;5.804;2023-03-01T05:20:10;14.60;56.70
20335;DHT22;10325;51.468;5.804;2023-03-01T05:22:40;14.50;56.70
20335;DHT22;10325;51.468;5.804;2023-03-01T05:25:10;14.60;56.70
20335;DHT22;10325;51.468;5.804;2023-03-01T05:27:40;14.60;56.70
20335;DHT22;10325;51.468;5.804;2023-03-01T05:30:12;14.60;56.70
20335;DHT22;10325;51.468;5.804;2023-03-01T05:32:49;14.50;56.70
20335;DHT22;10325;51.468;5.804;2023-03-01T05:35:20;14.50;56.70
20335;DHT22;10325;51.468;5.804;2023-03-01T05:37:57;14.50;56.70
20335;DHT22;10325;51.468;5.804;2023-03-01T05:40:29;14.50;56.70
20335;DHT22;10325;51.468;5.804;2023-03-01T05:42:58;14.50;56.70
20335;DHT22;10325;51.468;5.804;2023-03-01T05:45:29;14.50;56.70
20335;DHT22;10325;51.468;5.804;2023-03-01T05:48:01;14.50;56.70
20335;DHT22;10325;51.468;5.804;2023-03-01T05:50:33;14.50;56.70
20335;DHT22;10325;51.468;5.804;2023-03-01T05:53:15;14.50;56.70
20335;DHT22;10325;51.468;5.804;2023-03-01T05:55:47;14.50;56.70
20335;DHT22;10325;51.468;5.804;2023-03-01T05:58:20;14.50;56.70
20335;DHT22;10325;51.468;5.804;2023-03-01T06:00:50;14.50;56.60
20335;DHT22;10325;51.468;5.804;2023-03-01T06:03:24;14.40;56.60
20335;DHT22;10325;51.468;5.804;2023-03-01T06:05:57;14.50;56.70
20335;DHT22;10325;51.468;5.804;2023-03-01T06:08:27;14.50;56.70
20335;DHT22;10325;51.468;5.804;2023-03-01T06:10:56;14.40;56.50
20335;DHT22;10325;51.468;5.804;2023-03-01T06:13:29;14.50;56.60
20335;DHT22;10325;51.468;5.804;2023-03-01T06:16:05;14.40;56.60
20335;DHT22;10325;51.468;5.804;2023-03-01T06:19:00;14.40;56.50
20335;DHT22;10325;51.468;5.804;2023-03-01T06:21:32;14.40;56.50
20335;DHT22;10325;51.468;5.804;2023-03-01T06:24:04;14.40;56.50
20335;DHT22;10325;51.468;5.804;2023-03-01T06:26:38;14.40;56.50
20335;DHT22;10325;51.468;5.804;2023-03-01T06:29:06;14.50;56.60
20335;DHT22;10325;51.468;5.804;2023-03-01T06:31:39;14.40;56.50
20335;DHT22;10325;51.468;5.804;2023-03-01T06:34:11;14.50;56.60
20335;DHT22;10325;51.468;5.804;2023-03-01T06:36:46;14.40;56.60
20335;DHT22;10325;51.468;5.804;2023-03-01T06:39:20;14.40;56.70
20335;DHT22;10325;51.468;5.804;2023-03-01T06:41:55;14.40;56.60
20335;DHT22;10325;51.468;5.804;2023-03-01T06:44:31;14.50;56.70
20335;DHT22;10325;51.468;5.804;2023-03-01T06:47:14;14.50;56.70
20335;DHT22;10325;51.468;5.804;2023-03-01T06:49:44;14.40;56.70
20335;DHT22;10325;51.468;5.804;2023-03-01T06:52:16;14.50;56.70
20335;DHT22;10325;51.468;5.804;2023-03-01T06:54:46;14.50;56.70
20335;DHT22;10325;51.468;5.804;2023-03-01T06:57:18;14.50;56.60
20335;DHT22;10325;51.468;5.804;2023-03-01T06:59:47;14.50;56.70
20335;DHT22;10325;51.468;5.804;2023-03-01T07:02:18;14.50;56.40
20335;DHT22;10325;51.468;5.804;2023-03-01T07:04:52;14.50;56.30
20335;DHT22;10325;51.468;5.804;2023-03-01T07:07:22;14.50;56.30
20335;DHT22;10325;51.468;5.804;2023-03-01T07:09:55;14.50;56.10
20335;DHT22;10325;51.468;5.804;2023-03-01T07:12:27;14.50;56.10
20335;DHT22;10325;51.468;5.804;2023-03-01T07:14:59;14.50;56.00
20335;DHT22;10325;51.468;5.804;2023-03-01T07:17:28;14.50;56.00
20335;DHT22;10325;51.468;5.804;2023-03-01T07:19:58;14.50;55.90
20335;DHT22;10325;51.468;5.804;2023-03-01T07:22:27;14.50;55.80
20335;DHT22;10325;51.468;5.804;2023-03-01T07:24:54;14.50;55.70
20335;DHT22;10325;51.468;5.804;2023-03-01T07:27:23;14.50;55.70
20335;DHT22;10325;51.468;5.804;2023-03-01T07:29:54;14.50;55.60
20335;DHT22;10325;51.468;5.804;2023-03-01T07:32:27;14.50;55.60
20335;DHT22;10325;51.468;5.804;2023-03-01T07:35:06;14.50;55.60
20335;DHT22;10325;51.468;5.804;2023-03-01T07:37:40;14.50;55.60
20335;DHT22;10325;51.468;5.804;2023-03-01T07:40:13;14.50;55.70
20335;DHT22;10325;51.468;5.804;2023-03-01T07:42:45;14.50;55.70
20335;DHT22;10325;51.468;5.804;2023-03-01T07:45:15;14.50;55.60
20335;DHT22;10325;51.468;5.804;2023-03-01T07:47:46;14.50;55.60
20335;DHT22;10325;51.468;5.804;2023-03-01T07:50:20;14.60;55.70
20335;DHT22;10325;51.468;5.804;2023-03-01T07:52:51;14.70;57.30
20335;DHT22;10325;51.468;5.804;2023-03-01T07:55:25;14.90;58.10
20335;DHT22;10325;51.468;5.804;2023-03-01T07:57:56;15.20;58.20
20335;DHT22;10325;51.468;5.804;2023-03-01T08:00:24;15.40;58.00
20335;DHT22;10325;51.468;5.804;2023-03-01T08:02:58;15.70;57.50
20335;DHT22;10325;51.468;5.804;2023-03-01T08:05:26;16.00;56.80
20335;DHT22;10325;51.468;5.804;2023-03-01T08:07:54;16.20;56.40
20335;DHT22;10325;51.468;5.804;2023-03-01T08:10:27;16.50;55.80
20335;DHT22;10325;51.468;5.804;2023-03-01T08:12:55;16.70;55.10
20335;DHT22;10325;51.468;5.804;2023-03-01T08:15:24;16.90;54.70
20335;DHT22;10325;51.468;5.804;2023-03-01T08:17:53;17.10;54.50
20335;DHT22;10325;51.468;5.804;2023-03-01T08:20:23;17.20;54.20
20335;DHT22;10325;51.468;5.804;2023-03-01T08:22:59;17.40;54.00
20335;DHT22;10325;51.468;5.804;2023-03-01T08:25:30;17.60;53.60
20335;DHT22;10325;51.468;5.804;2023-03-01T08:28:01;17.70;53.50
20335;DHT22;10325;51.468;5.804;2023-03-01T08:30:32;17.80;53.30
20335;DHT22;10325;51.468;5.804;2023-03-01T08:33:04;18.00;53.10
20335;DHT22;10325;51.468;5.804;2023-03-01T08:35:35;18.10;52.70
20335;DHT22;10325;51.468;5.804;2023-03-01T08:38:06;18.20;52.00
20335;DHT22;10325;51.468;5.804;2023-03-01T08:40:40;18.40;51.70
20335;DHT22;10325;51.468;5.804;2023-03-01T08:43:13;18.60;51.50
20335;DHT22;10325;51.468;5.804;2023-03-01T08:45:43;18.80;51.10
20335;DHT22;10325;51.468;5.804;2023-03-01T08:48:13;19.00;50.90
20335;DHT22;10325;51.468;5.804;2023-03-01T08:50:46;19.20;50.70
20335;DHT22;10325;51.468;5.804;2023-03-01T08:53:16;19.30;50.20
20335;DHT22;10325;51.468;5.804;2023-03-01T08:55:47;19.40;50.00
20335;DHT22;10325;51.468;5.804;2023-03-01T08:58:28;19.60;49.70
20335;DHT22;10325;51.468;5.804;2023-03-01T09:00:57;19.70;49.30
20335;DHT22;10325;51.468;5.804;2023-03-01T09:03:27;19.90;49.60
20335;DHT22;10325;51.468;5.804;2023-03-01T09:06:00;19.90;49.00
20335;DHT22;10325;51.468;5.804;2023-03-01T09:08:39;20.10;46.90
20335;DHT22;10325;51.468;5.804;2023-03-01T09:11:08;19.80;45.10
20335;DHT22;10325;51.468;5.804;2023-03-01T09:13:38;19.70;46.70
20335;DHT22;10325;51.468;5.804;2023-03-01T09:16:12;19.50;47.70
20335;DHT22;10325;51.468;5.804;2023-03-01T09:18:53;19.50;48.20
20335;DHT22;10325;51.468;5.804;2023-03-01T09:21:23;19.50;48.20
20335;DHT22;10325;51.468;5.804;2023-03-01T09:24:13;19.40;48.40
20335;DHT22;10325;51.468;5.804;2023-03-01T09:26:43;19.40;48.00
20335;DHT22;10325;51.468;5.804;2023-03-01T09:29:20;19.30;48.70
20335;DHT22;10325;51.468;5.804;2023-03-01T09:31:51;19.20;48.70
20335;DHT22;10325;51.468;5.804;2023-03-01T09:34:31;19.20;48.80
20335;DHT22;10325;51.468;5.804;2023-03-01T09:37:02;19.20;49.00
20335;DHT22;10325;51.468;5.804;2023-03-01T09:39:34;19.10;48.90
20335;DHT22;10325;51.468;5.804;2023-03-01T09:42:04;19.10;48.80
20335;DHT22;10325;51.468;5.804;2023-03-01T09:44:47;19.00;49.20
20335;DHT22;10325;51.468;5.804;2023-03-01T09:47:28;19.00;49.60
20335;DHT22;10325;51.468;5.804;2023-03-01T09:50:18;19.00;50.40
20335;DHT22;10325;51.468;5.804;2023-03-01T09:53:16;18.90;50.30
20335;DHT22;10325;51.468;5.804;2023-03-01T10:04:53;18.80;51.10
20335;DHT22;10325;51.468;5.804;2023-03-01T10:10:28;18.80;51.10
20335;DHT22;10325;51.468;5.804;2023-03-01T10:12:57;18.80;51.20
20335;DHT22;10325;51.468;5.804;2023-03-01T10:15:39;18.80;51.20
20335;DHT22;10325;51.468;5.804;2023-03-01T10:18:19;18.80;51.20
20335;DHT22;10325;51.468;5.804;2023-03-01T10:21:18;18.80;51.60
20335;DHT22;10325;51.468;5.804;2023-03-01T10:23:53;18.70;51.10
20335;DHT22;10325;51.468;5.804;2023-03-01T10:26:58;18.70;51.50
20335;DHT22;10325;51.468;5.804;2023-03-01T10:29:49;18.70;51.30
20335;DHT22;10325;51.468;5.804;2023-03-01T10:32:21;18.60;51.60
20335;DHT22;10325;51.468;5.804;2023-03-01T10:34:52;18.60;52.20
20335;DHT22;10325;51.468;5.804;2023-03-01T10:37:23;18.60;51.90
20335;DHT22;10325;51.468;5.804;2023-03-01T10:40:03;18.60;51.70
20335;DHT22;10325;51.468;5.804;2023-03-01T10:42:47;18.60;51.90
20335;DHT22;10325;51.468;5.804;2023-03-01T10:45:39;18.60;52.90
20335;DHT22;10325;51.468;5.804;2023-03-01T10:48:27;18.90;52.70
20335;DHT22;10325;51.468;5.804;2023-03-01T10:51:06;19.10;52.20
20335;DHT22;10325;51.468;5.804;2023-03-01T10:53:43;19.40;51.90
20335;DHT22;10325;51.468;5.804;2023-03-01T10:56:57;19.60;51.50
20335;DHT22;10325;51.468;5.804;2023-03-01T10:59:34;19.80;51.10
20335;DHT22;10325;51.468;5.804;2023-03-01T11:02:22;20.10;50.80
20335;DHT22;10325;51.468;5.804;2023-03-01T11:05:22;20.30;50.40
20335;DHT22;10325;51.468;5.804;2023-03-01T11:08:04;20.50;50.00
20335;DHT22;10325;51.468;5.804;2023-03-01T11:10:36;20.70;49.60
20335;DHT22;10325;51.468;5.804;2023-03-01T11:13:17;20.90;49.10
20335;DHT22;10325;51.468;5.804;2023-03-01T11:16:03;21.10;48.80
20335;DHT22;10325;51.468;5.804;2023-03-01T11:18:38;21.40;48.50
20335;DHT22;10325;51.468;5.804;2023-03-01T11:21:16;21.50;48.10
20335;DHT22;10325;51.468;5.804;2023-03-01T11:23:46;21.70;47.80
20335;DHT22;10325;51.468;5.804;2023-03-01T11:26:23;21.90;47.50
20335;DHT22;10325;51.468;5.804;2023-03-01T11:28:59;21.90;46.90
20335;DHT22;10325;51.468;5.804;2023-03-01T11:31:35;21.70;47.00
20335;DHT22;10325;51.468;5.804;2023-03-01T11:34:43;21.50;46.70
20335;DHT22;10325;51.468;5.804;2023-03-01T11:58:33;20.40;47.80
20335;DHT22;10325;51.468;5.804;2023-03-01T12:04:23;20.10;48.60
20335;DHT22;10325;51.468;5.804;2023-03-01T12:07:30;20.00;49.20
20335;DHT22;10325;51.468;5.804;2023-03-01T12:10:34;19.90;50.00
20335;DHT22;10325;51.468;5.804;2023-03-01T12:22:35;19.70;50.70
20335;DHT22;10325;51.468;5.804;2023-03-01T12:34:19;19.60;50.90
20335;DHT22;10325;51.468;5.804;2023-03-01T12:46:21;19.60;50.90
20335;DHT22;10325;51.468;5.804;2023-03-01T12:49:08;19.70;51.50
20335;DHT22;10325;51.468;5.804;2023-03-01T12:54:37;19.70;50.80
20335;DHT22;10325;51.468;5.804;2023-03-01T12:57:40;19.70;51.80
20335;DHT22;10325;51.468;5.804;2023-03-01T13:06:47;19.70;51.60
20335;DHT22;10325;51.468;5.804;2023-03-01T13:15:37;19.70;51.90
20335;DHT22;10325;51.468;5.804;2023-03-01T13:20:56;19.70;51.30
20335;DHT22;10325;51.468;5.804;2023-03-01T13:23:31;19.70;51.40
20335;DHT22;10325;51.468;5.804;2023-03-01T13:26:17;19.80;51.50
20335;DHT22;10325;51.468;5.804;2023-03-01T13:28:55;19.70;51.80
20335;DHT22;10325;51.468;5.804;2023-03-01T13:34:02;19.70;51.60
20335;DHT22;10325;51.468;5.804;2023-03-01T13:41:59;19.80;51.60
20335;DHT22;10325;51.468;5.804;2023-03-01T13:44:34;19.80;51.60
20335;DHT22;10325;51.468;5.804;2023-03-01T13:47:17;19.80;51.30
20335;DHT22;10325;51.468;5.804;2023-03-01T13:49:57;19.80;51.90
20335;DHT22;10325;51.468;5.804;2023-03-01T13:52:45;19.80;51.80
20335;DHT22;10325;51.468;5.804;2023-03-01T13:55:44;19.80;51.90
20335;DHT22;10325;51.468;5.804;2023-03-01T13:58:47;19.70;52.30
20335;DHT22;10325;51.468;5.804;2023-03-01T14:01:40;19.70;51.80
20335;DHT22;10325;51.468;5.804;2023-03-01T14:04:30;19.70;52.10
20335;DHT22;10325;51.468;5.804;2023-03-01T14:07:22;19.70;52.20
20335;DHT22;10325;51.468;5.804;2023-03-01T14:10:14;19.70;52.40
20335;DHT22;10325;51.468;5.804;2023-03-01T14:13:08;19.70;52.30
20335;DHT22;10325;51.468;5.804;2023-03-01T14:15:54;19.70;52.40
20335;DHT22;10325;51.468;5.804;2023-03-01T14:18:48;19.70;52.20
20335;DHT22;10325;51.468;5.804;2023-03-01T14:21:23;19.70;52.50
20335;DHT22;10325;51.468;5.804;2023-03-01T14:23:56;19.70;52.10
20335;DHT22;10325;51.468;5.804;2023-03-01T14:26:26;19.70;52.60
20335;DHT22;10325;51.468;5.804;2023-03-01T14:28:55;19.70;52.40
20335;DHT22;10325;51.468;5.804;2023-03-01T14:31:38;19.60;52.00
20335;DHT22;10325;51.468;5.804;2023-03-01T14:34:24;19.40;52.70
20335;DHT22;10325;51.468;5.804;2023-03-01T14:37:34;19.20;53.20
20335;DHT22;10325;51.468;5.804;2023-03-01T14:40:04;19.10;53.40
20335;DHT22;10325;51.468;5.804;2023-03-01T14:42:47;19.00;53.60
20335;DHT22;10325;51.468;5.804;2023-03-01T14:45:17;18.90;53.70
20335;DHT22;10325;51.468;5.804;2023-03-01T14:47:48;18.80;53.80
20335;DHT22;10325;51.468;5.804;2023-03-01T14:50:31;18.80;53.40
20335;DHT22;10325;51.468;5.804;2023-03-01T14:53:05;18.80;53.80
20335;DHT22;10325;51.468;5.804;2023-03-01T14:55:38;18.80;53.60
20335;DHT22;10325;51.468;5.804;2023-03-01T14:58:18;18.70;53.90
20335;DHT22;10325;51.468;5.804;2023-03-01T15:01:00;19.00;54.00
20335;DHT22;10325;51.468;5.804;2023-03-01T15:03:46;19.30;53.50
20335;DHT22;10325;51.468;5.804;2023-03-01T15:06:21;19.60;53.50
20335;DHT22;10325;51.468;5.804;2023-03-01T15:08:53;19.80;53.20
20335;DHT22;10325;51.468;5.804;2023-03-01T15:11:27;20.10;52.70
20335;DHT22;10325;51.468;5.804;2023-03-01T15:13:58;20.30;52.20
20335;DHT22;10325;51.468;5.804;2023-03-01T15:16:31;20.60;52.00
20335;DHT22;10325;51.468;5.804;2023-03-01T15:19:05;20.70;51.50
20335;DHT22;10325;51.468;5.804;2023-03-01T15:21:38;20.90;51.20
20335;DHT22;10325;51.468;5.804;2023-03-01T15:24:26;21.10;50.70
20335;DHT22;10325;51.468;5.804;2023-03-01T15:27:02;21.40;50.50
20335;DHT22;10325;51.468;5.804;2023-03-01T15:29:34;21.50;50.30
20335;DHT22;10325;51.468;5.804;2023-03-01T15:32:35;21.70;50.10
20335;DHT22;10325;51.468;5.804;2023-03-01T15:35:41;21.80;50.00
20335;DHT22;10325;51.468;5.804;2023-03-01T15:41:29;22.10;49.70
20335;DHT22;10325;51.468;5.804;2023-03-01T15:44:40;22.10;49.40
20335;DHT22;10325;51.468;5.804;2023-03-01T15:47:26;22.20;49.20
20335;DHT22;10325;51.468;5.804;2023-03-01T15:49:57;22.30;49.20
20335;DHT22;10325;51.468;5.804;2023-03-01T15:52:36;22.40;49.20
20335;DHT22;10325;51.468;5.804;2023-03-01T15:55:25;22.40;49.00
20335;DHT22;10325;51.468;5.804;2023-03-01T15:58:21;22.60;49.20
20335;DHT22;10325;51.468;5.804;2023-03-01T16:00:53;22.60;48.70
20335;DHT22;10325;51.468;5.804;2023-03-01T16:03:30;22.70;48.60
20335;DHT22;10325;51.468;5.804;2023-03-01T16:06:02;22.90;48.40
20335;DHT22;10325;51.468;5.804;2023-03-01T16:08:33;22.90;48.40
20335;DHT22;10325;51.468;5.804;2023-03-01T16:11:04;22.90;48.00
20335;DHT22;10325;51.468;5.804;2023-03-01T16:13:35;22.80;48.00
20335;DHT22;10325;51.468;5.804;2023-03-01T16:16:05;22.70;48.30
20335;DHT22;10325;51.468;5.804;2023-03-01T16:18:32;22.50;48.40
20335;DHT22;10325;51.468;5.804;2023-03-01T16:21:01;22.40;48.10
20335;DHT22;10325;51.468;5.804;2023-03-01T16:23:32;22.30;48.70
20335;DHT22;10325;51.468;5.804;2023-03-01T16:26:02;22.20;48.70
20335;DHT22;10325;51.468;5.804;2023-03-01T16:28:40;22.10;48.80
20335;DHT22;10325;51.468;5.804;2023-03-01T16:31:18;22.10;49.10
20335;DHT22;10325;51.468;5.804;2023-03-01T16:33:47;22.00;48.90
20335;DHT22;10325;51.468;5.804;2023-03-01T16:36:22;22.00;48.90
20335;DHT22;10325;51.468;5.804;2023-03-01T16:39:00;21.80;47.50
20335;DHT22;10325;51.468;5.804;2023-03-01T16:41:41;21.40;49.40
20335;DHT22;10325;51.468;5.804;2023-03-01T16:44:14;21.10;49.60
20335;DHT22;10325;51.468;5.804;2023-03-01T16:46:44;20.90;50.20
20335;DHT22;10325;51.468;5.804;2023-03-01T16:49:18;20.60;50.90
20335;DHT22;10325;51.468;5.804;2023-03-01T16:51:49;20.40;51.40
20335;DHT22;10325;51.468;5.804;2023-03-01T16:54:21;20.20;51.70
20335;DHT22;10325;51.468;5.804;2023-03-01T16:56:48;20.10;52.30
20335;DHT22;10325;51.468;5.804;2023-03-01T16:59:17;19.90;52.60
20335;DHT22;10325;51.468;5.804;2023-03-01T17:01:50;19.80;52.90
20335;DHT22;10325;51.468;5.804;2023-03-01T17:04:18;19.70;53.20
20335;DHT22;10325;51.468;5.804;2023-03-01T17:06:50;19.60;53.10
20335;DHT22;10325;51.468;5.804;2023-03-01T17:09:22;19.40;52.80
20335;DHT22;10325;51.468;5.804;2023-03-01T17:11:52;19.30;53.40
20335;DHT22;10325;51.468;5.804;2023-03-01T17:14:22;19.20;53.30
20335;DHT22;10325;51.468;5.804;2023-03-01T17:16:52;19.10;54.00
20335;DHT22;10325;51.468;5.804;2023-03-01T17:19:20;19.10;54.00
20335;DHT22;10325;51.468;5.804;2023-03-01T17:21:50;19.00;54.10
20335;DHT22;10325;51.468;5.804;2023-03-01T17:24:19;18.90;54.00
20335;DHT22;10325;51.468;5.804;2023-03-01T17:26:50;18.90;54.40
20335;DHT22;10325;51.468;5.804;2023-03-01T17:29:21;18.80;54.30
20335;DHT22;10325;51.468;5.804;2023-03-01T17:31:54;18.80;54.20
20335;DHT22;10325;51.468;5.804;2023-03-01T17:34:27;18.70;54.30
20335;DHT22;10325;51.468;5.804;2023-03-01T17:37:03;18.60;54.20
20335;DHT22;10325;51.468;5.804;2023-03-01T17:39:35;18.60;54.20
20335;DHT22;10325;51.468;5.804;2023-03-01T17:42:16;18.50;54.20
20335;DHT22;10325;51.468;5.804;2023-03-01T17:44:45;18.50;54.20
20335;DHT22;10325;51.468;5.804;2023-03-01T17:47:14;18.50;54.50
20335;DHT22;10325;51.468;5.804;2023-03-01T17:49:43;18.40;54.50
20335;DHT22;10325;51.468;5.804;2023-03-01T17:52:19;18.40;54.50
20335;DHT22;10325;51.468;5.804;2023-03-01T17:54:51;18.40;54.60
20335;DHT22;10325;51.468;5.804;2023-03-01T17:57:20;18.30;54.50
20335;DHT22;10325;51.468;5.804;2023-03-01T17:59:50;18.30;54.50
20335;DHT22;10325;51.468;5.804;2023-03-01T18:02:24;18.20;54.40
20335;DHT22;10325;51.468;5.804;2023-03-01T18:04:56;18.20;54.50